createdAt,value
2023-04-16T00:02:45.849Z,5.47
2023-04-16T00:07:47.106Z,5.35
2023-04-16T00:12:48.025Z,5.31
2023-04-16T00:17:49.089Z,5.31
2023-04-16T00:22:50.563Z,5.24
2023-04-16T00:27:51.576Z,5.10
2023-04-16T00:32:52.595Z,4.98
2023-04-16T00:37:53.843Z,4.92
2023-04-16T00:42:55.057Z,4.87
2023-04-16T00:47:59.293Z,4.84
2023-04-16T00:53:01.660Z,4.76
2023-04-16T00:58:03.024Z,4.70
2023-04-16T01:03:04.365Z,4.68
2023-04-16T01:08:05.513Z,4.74
2023-04-16T01:13:06.443Z,4.89
2023-04-16T01:18:21.582Z,4.64
2023-04-16T01:23:22.694Z,4.90
2023-04-16T01:28:23.792Z,4.78
2023-04-16T01:33:24.782Z,4.74
2023-04-16T01:38:26.432Z,4.76
2023-04-16T01:43:27.467Z,4.79
2023-04-16T01:48:28.583Z,4.86
2023-04-16T01:53:29.729Z,4.92
2023-04-16T01:58:32.215Z,4.98
2023-04-16T02:03:33.522Z,5.04
2023-04-16T02:08:34.887Z,5.13
2023-04-16T02:13:36.066Z,5.26
2023-04-16T02:18:37.099Z,5.30
2023-04-16T02:23:40.698Z,5.20
2023-04-16T02:28:41.797Z,5.09
2023-04-16T02:33:44.781Z,5.05
2023-04-16T02:38:46.352Z,5.05
2023-04-16T02:43:47.653Z,5.12
2023-04-16T02:48:48.830Z,5.14
2023-04-16T02:53:49.853Z,5.12
2023-04-16T02:58:51.750Z,5.13
2023-04-16T03:03:52.850Z,5.12
2023-04-16T03:08:54.272Z,5.17
2023-04-16T03:13:56.029Z,5.20
2023-04-16T03:18:56.984Z,5.15
2023-04-16T03:23:57.961Z,5.15
2023-04-16T03:28:58.905Z,5.18
2023-04-16T03:34:01.953Z,5.28
2023-04-16T03:39:05.381Z,5.33
2023-04-16T03:44:06.578Z,5.31
2023-04-16T03:49:08.085Z,5.32
2023-04-16T03:54:09.472Z,5.45
2023-04-16T03:59:12.291Z,5.56
2023-04-16T04:04:13.507Z,5.56
2023-04-16T04:09:15.777Z,5.60
2023-04-16T04:14:16.908Z,5.65
2023-04-16T04:19:17.927Z,5.75
2023-04-16T04:24:19.151Z,5.81
2023-04-16T04:29:20.489Z,5.81
2023-04-16T04:34:21.793Z,5.76
2023-04-16T04:39:22.913Z,5.74
2023-04-16T04:44:24.267Z,5.83
2023-04-16T04:49:25.716Z,5.92
2023-04-16T04:54:30.778Z,6.07
2023-04-16T04:59:31.885Z,6.26
2023-04-16T05:04:33.884Z,6.33
2023-04-16T05:09:35.182Z,6.45
2023-04-16T05:14:36.170Z,6.61
2023-04-16T05:19:37.185Z,6.77
2023-04-16T05:24:38.153Z,7.01
2023-04-16T05:29:39.218Z,7.36
2023-04-16T05:34:40.160Z,7.70
2023-04-16T05:39:41.283Z,8.05
2023-04-16T05:44:42.318Z,8.46
2023-04-16T05:49:43.428Z,8.87
2023-04-16T05:54:44.676Z,9.03
2023-04-16T05:59:45.597Z,9.22
2023-04-16T06:04:46.641Z,9.40
2023-04-16T06:09:47.618Z,9.50
2023-04-16T06:14:48.591Z,9.85
2023-04-16T06:19:49.566Z,10.22
2023-04-16T06:24:50.590Z,10.46
2023-04-16T06:29:52.193Z,10.51
2023-04-16T06:34:53.263Z,10.56
2023-04-16T06:39:54.234Z,10.71
2023-04-16T06:44:55.217Z,10.86
2023-04-16T06:49:56.219Z,11.03
2023-04-16T06:54:57.871Z,11.04
2023-04-16T06:59:58.812Z,10.86
2023-04-16T07:04:59.892Z,10.90
2023-04-16T07:10:00.895Z,11.12
2023-04-16T07:15:02.366Z,11.30
2023-04-16T07:20:03.722Z,11.45
2023-04-16T07:25:05.038Z,11.51
2023-04-16T07:30:07.361Z,11.69
2023-04-16T07:35:08.577Z,11.75
2023-04-16T07:40:10.254Z,11.86
2023-04-16T07:45:11.725Z,11.93
2023-04-16T07:50:12.829Z,11.73
2023-04-16T07:55:13.928Z,12.06
2023-04-16T08:00:15.004Z,12.57
2023-04-16T08:05:16.090Z,12.63
2023-04-16T08:10:17.124Z,12.63
2023-04-16T08:15:18.224Z,12.84
2023-04-16T08:20:19.657Z,12.75
2023-04-16T08:25:22.915Z,12.79
2023-04-16T08:30:24.193Z,12.98
2023-04-16T08:35:25.267Z,13.26
2023-04-16T08:40:28.197Z,13.40
2023-04-16T08:45:29.941Z,13.41
2023-04-16T08:50:32.760Z,13.74
2023-04-16T08:55:40.176Z,14.39
2023-04-16T09:00:42.585Z,15.06
2023-04-16T09:05:43.938Z,15.31
2023-04-16T09:10:45.448Z,15.22
2023-04-16T09:15:46.572Z,15.20
2023-04-16T09:20:51.371Z,15.19
2023-04-16T09:25:52.630Z,15.05
2023-04-16T09:31:07.608Z,15.05
2023-04-16T09:36:09.706Z,14.93
2023-04-16T09:41:10.897Z,14.86
2023-04-16T09:46:12.290Z,14.62
2023-04-16T09:51:13.321Z,14.43
2023-04-16T09:56:14.447Z,14.14
2023-04-16T10:01:17.694Z,14.21
2023-04-16T10:06:20.466Z,14.28
2023-04-16T10:11:21.721Z,14.26
2023-04-16T10:16:23.515Z,14.36
2023-04-16T10:21:32.885Z,14.54
2023-04-16T10:26:34.736Z,14.87
2023-04-16T10:31:38.040Z,15.23
2023-04-16T10:36:42.094Z,15.48
2023-04-16T10:41:43.048Z,15.58
2023-04-16T10:46:50.145Z,15.60
2023-04-16T10:51:57.988Z,15.46
2023-04-16T10:57:04.412Z,15.15
2023-04-16T11:02:09.007Z,14.84
2023-04-16T11:07:15.757Z,14.62
2023-04-16T11:12:22.531Z,14.51
2023-04-16T11:17:28.290Z,14.66
2023-04-16T11:22:29.686Z,14.83
2023-04-16T11:27:30.929Z,14.97
2023-04-16T11:32:36.666Z,15.24
2023-04-16T11:37:38.409Z,15.50
2023-04-16T11:42:41.321Z,15.57
2023-04-16T11:47:56.014Z,15.61
2023-04-16T11:53:03.939Z,15.79
2023-04-16T11:58:18.416Z,15.95
2023-04-16T12:03:37.669Z,16.17
2023-04-16T12:08:38.849Z,16.31
2023-04-16T12:13:40.307Z,16.34
2023-04-16T12:18:59.441Z,16.48
2023-04-16T12:24:00.427Z,16.70
2023-04-16T12:29:33.957Z,16.88
2023-04-16T12:34:50.420Z,17.05
2023-04-16T12:39:51.531Z,17.11
2023-04-16T12:44:52.514Z,17.02
2023-04-16T12:49:54.799Z,16.95
2023-04-16T12:54:55.918Z,17.05
2023-04-16T12:59:57.963Z,17.15
2023-04-16T13:04:59.265Z,17.33
2023-04-16T13:10:00.397Z,17.69
2023-04-16T13:15:01.446Z,17.98
2023-04-16T13:20:02.667Z,18.08
2023-04-16T13:25:04.821Z,17.74
2023-04-16T13:30:06.976Z,17.33
2023-04-16T13:35:09.998Z,17.11
2023-04-16T13:40:11.214Z,16.85
2023-04-16T13:45:12.399Z,16.69
2023-04-16T13:50:13.429Z,16.51
2023-04-16T13:55:17.317Z,16.82
2023-04-16T14:00:18.901Z,16.94
2023-04-16T14:05:19.956Z,16.87
2023-04-16T14:10:20.950Z,17.00
2023-04-16T14:15:21.895Z,16.88
2023-04-16T14:20:22.915Z,16.88
2023-04-16T14:25:24.191Z,16.91
2023-04-16T14:30:25.498Z,16.93
2023-04-16T14:35:26.561Z,16.96
2023-04-16T14:40:27.722Z,16.83
2023-04-16T14:45:30.222Z,17.00
2023-04-16T14:50:37.148Z,17.16
2023-04-16T14:55:38.467Z,16.99
2023-04-16T15:00:39.479Z,16.97
2023-04-16T15:05:40.802Z,16.93
2023-04-16T15:10:42.662Z,17.02
2023-04-16T15:15:43.734Z,17.28
2023-04-16T15:20:44.814Z,17.26
2023-04-16T15:25:45.752Z,17.11
2023-04-16T15:30:47.116Z,17.02
2023-04-16T15:35:50.662Z,16.98
2023-04-16T15:40:51.625Z,16.56
2023-04-16T15:45:52.656Z,16.32
2023-04-16T15:50:54.196Z,16.15
2023-04-16T15:55:55.209Z,16.08
2023-04-16T16:00:56.461Z,15.86
2023-04-16T16:05:59.353Z,15.99
2023-04-16T16:11:01.332Z,15.89
2023-04-16T16:16:03.174Z,15.80
2023-04-16T16:21:04.300Z,15.87
2023-04-16T16:26:05.666Z,15.84
2023-04-16T16:31:06.736Z,16.07
2023-04-16T16:36:11.129Z,16.02
2023-04-16T16:41:12.779Z,16.07
2023-04-16T16:46:13.760Z,16.02
2023-04-16T16:51:18.119Z,15.97
2023-04-16T16:56:19.083Z,15.86
2023-04-16T17:01:20.130Z,15.69
2023-04-16T17:06:22.421Z,15.42
2023-04-16T17:11:26.251Z,15.10
2023-04-16T17:16:27.368Z,14.78
2023-04-16T17:21:32.086Z,14.41
2023-04-16T17:26:33.068Z,14.08
2023-04-16T17:31:35.167Z,13.77
2023-04-16T17:36:36.655Z,13.48
2023-04-16T17:41:37.650Z,13.17
2023-04-16T17:46:38.690Z,12.87
2023-04-16T17:51:40.356Z,12.56
2023-04-16T17:56:41.436Z,12.28
2023-04-16T18:01:43.716Z,12.07
2023-04-16T18:06:44.901Z,11.91
2023-04-16T18:11:45.927Z,11.80
2023-04-16T18:16:48.229Z,11.66
2023-04-16T18:21:49.198Z,11.50
2023-04-16T18:26:50.249Z,11.34
2023-04-16T18:31:51.458Z,11.17
2023-04-16T18:36:52.477Z,11.00
2023-04-16T18:41:53.464Z,10.88
2023-04-16T18:46:54.664Z,10.80
2023-04-16T18:51:55.857Z,10.72
2023-04-16T18:56:59.067Z,10.64
2023-04-16T19:02:01.496Z,10.53
2023-04-16T19:07:02.924Z,10.44
2023-04-16T19:12:04.011Z,10.45
2023-04-16T19:17:05.063Z,10.49
2023-04-16T19:22:06.138Z,10.52
2023-04-16T19:27:07.126Z,10.50
2023-04-16T19:32:08.249Z,10.43
2023-04-16T19:37:09.310Z,10.38
2023-04-16T19:42:10.285Z,10.37
2023-04-16T19:47:11.266Z,10.39
2023-04-16T19:52:12.352Z,10.43
2023-04-16T19:57:13.470Z,10.45
2023-04-16T20:02:14.575Z,10.45
2023-04-16T20:07:15.612Z,10.44
2023-04-16T20:12:17.802Z,10.45
2023-04-16T20:17:19.126Z,10.50
2023-04-16T20:22:20.382Z,10.55
2023-04-16T20:27:21.401Z,10.56
2023-04-16T20:32:22.484Z,10.51
2023-04-16T20:37:23.587Z,10.41
2023-04-16T20:42:25.471Z,10.27
2023-04-16T20:47:26.591Z,10.11
2023-04-16T20:52:27.559Z,9.96
2023-04-16T20:57:29.102Z,9.82
2023-04-16T21:02:30.658Z,9.71
2023-04-16T21:07:32.416Z,9.56
2023-04-16T21:12:35.204Z,9.37
2023-04-16T21:17:39.382Z,9.12
2023-04-16T21:22:40.588Z,8.90
2023-04-16T21:27:41.553Z,8.71
2023-04-16T21:32:43.046Z,8.55
2023-04-16T21:37:44.019Z,8.40
2023-04-16T21:42:45.947Z,8.26
2023-04-16T21:47:47.767Z,8.23
2023-04-16T21:52:54.090Z,8.25
2023-04-16T21:57:55.085Z,8.26
2023-04-16T22:02:59.334Z,8.27
2023-04-16T22:08:02.609Z,8.29
2023-04-16T22:13:11.928Z,8.13
2023-04-16T22:18:13.423Z,8.30
2023-04-16T22:23:14.348Z,8.29
2023-04-16T22:28:15.492Z,8.21
2023-04-16T22:33:16.546Z,8.16
2023-04-16T22:38:17.549Z,8.12
2023-04-16T22:43:18.505Z,8.07
2023-04-16T22:48:19.607Z,7.98
2023-04-16T22:53:21.147Z,7.87
2023-04-16T22:58:22.293Z,7.72
2023-04-16T23:03:23.356Z,7.61
2023-04-16T23:08:24.621Z,7.54
2023-04-16T23:13:28.292Z,7.50
2023-04-16T23:18:29.300Z,7.45
2023-04-16T23:23:30.494Z,7.41
2023-04-16T23:28:31.571Z,7.35
2023-04-16T23:33:33.855Z,7.32
2023-04-16T23:38:34.826Z,7.33
2023-04-16T23:43:40.014Z,7.37
2023-04-16T23:48:43.192Z,7.39
2023-04-16T23:53:45.376Z,7.36
2023-04-16T23:58:46.379Z,7.30
